sensor_id;sensor_type;location;lat;lon;timestamp;P1;durP1;ratioP1;P2;durP2;ratioP2
53044;SDS011;38930;52.766;6.884;2023-05-16T00:00:02;8.02;;;2.22;;
53044;SDS011;38930;52.766;6.884;2023-05-16T00:02:31;11.32;;;2.40;;
53044;SDS011;38930;52.766;6.884;2023-05-16T00:04:56;12.27;;;2.55;;
53044;SDS011;38930;52.766;6.884;2023-05-16T00:07:22;9.63;;;2.45;;
53044;SDS011;38930;52.766;6.884;2023-05-16T00:09:48;9.52;;;2.35;;
53044;SDS011;38930;52.766;6.884;2023-05-16T00:12:13;8.02;;;2.53;;
53044;SDS011;38930;52.766;6.884;2023-05-16T00:14:41;6.35;;;2.30;;
53044;SDS011;38930;52.766;6.884;2023-05-16T00:17:07;14.50;;;3.00;;
53044;SDS011;38930;52.766;6.884;2023-05-16T00:19:36;7.78;;;2.25;;
53044;SDS011;38930;52.766;6.884;2023-05-16T00:22:03;7.28;;;2.33;;
53044;SDS011;38930;52.766;6.884;2023-05-16T00:24:29;6.63;;;2.03;;
53044;SDS011;38930;52.766;6.884;2023-05-16T00:26:55;12.25;;;2.45;;
53044;SDS011;38930;52.766;6.884;2023-05-16T00:29:20;12.32;;;2.85;;
53044;SDS011;38930;52.766;6.884;2023-05-16T00:31:48;9.48;;;2.80;;
53044;SDS011;38930;52.766;6.884;2023-05-16T00:34:14;11.13;;;2.30;;
53044;SDS011;38930;52.766;6.884;2023-05-16T00:36:40;9.38;;;2.17;;
53044;SDS011;38930;52.766;6.884;2023-05-16T00:39:05;6.80;;;2.10;;
53044;SDS011;38930;52.766;6.884;2023-05-16T00:41:32;8.35;;;1.70;;
53044;SDS011;38930;52.766;6.884;2023-05-16T00:43:58;13.45;;;2.85;;
53044;SDS011;38930;52.766;6.884;2023-05-16T00:46:24;12.55;;;2.08;;
53044;SDS011;38930;52.766;6.884;2023-05-16T00:48:49;8.38;;;2.58;;
53044;SDS011;38930;52.766;6.884;2023-05-16T00:51:16;7.28;;;1.80;;
53044;SDS011;38930;52.766;6.884;2023-05-16T00:53:42;7.55;;;1.83;;
53044;SDS011;38930;52.766;6.884;2023-05-16T00:56:08;9.45;;;1.92;;
53044;SDS011;38930;52.766;6.884;2023-05-16T00:58:34;8.57;;;1.80;;
53044;SDS011;38930;52.766;6.884;2023-05-16T01:01:01;11.45;;;3.00;;
53044;SDS011;38930;52.766;6.884;2023-05-16T01:03:28;9.35;;;2.53;;
53044;SDS011;38930;52.766;6.884;2023-05-16T01:05:54;8.90;;;2.38;;
53044;SDS011;38930;52.766;6.884;2023-05-16T01:08:19;5.70;;;1.63;;
53044;SDS011;38930;52.766;6.884;2023-05-16T01:10:58;9.20;;;2.17;;
53044;SDS011;38930;52.766;6.884;2023-05-16T01:16:12;13.07;;;2.60;;
53044;SDS011;38930;52.766;6.884;2023-05-16T01:18:56;7.40;;;2.17;;
53044;SDS011;38930;52.766;6.884;2023-05-16T01:26:56;8.18;;;2.10;;
53044;SDS011;38930;52.766;6.884;2023-05-16T01:29:24;12.90;;;2.08;;
53044;SDS011;38930;52.766;6.884;2023-05-16T01:31:50;7.13;;;1.90;;
53044;SDS011;38930;52.766;6.884;2023-05-16T01:34:15;10.35;;;1.90;;
53044;SDS011;38930;52.766;6.884;2023-05-16T01:36:53;8.30;;;2.38;;
53044;SDS011;38930;52.766;6.884;2023-05-16T01:39:43;7.63;;;2.30;;
53044;SDS011;38930;52.766;6.884;2023-05-16T01:42:15;10.30;;;2.05;;
53044;SDS011;38930;52.766;6.884;2023-05-16T01:44:47;12.52;;;2.00;;
53044;SDS011;38930;52.766;6.884;2023-05-16T01:47:19;6.68;;;2.42;;
53044;SDS011;38930;52.766;6.884;2023-05-16T01:50:03;9.32;;;2.00;;
53044;SDS011;38930;52.766;6.884;2023-05-16T01:55:17;9.30;;;2.20;;
53044;SDS011;38930;52.766;6.884;2023-05-16T01:57:47;9.02;;;1.58;;
53044;SDS011;38930;52.766;6.884;2023-05-16T02:00:14;4.60;;;1.60;;
53044;SDS011;38930;52.766;6.884;2023-05-16T02:02:40;9.37;;;2.07;;
53044;SDS011;38930;52.766;6.884;2023-05-16T02:05:05;8.60;;;1.88;;
53044;SDS011;38930;52.766;6.884;2023-05-16T02:07:32;7.78;;;2.13;;
53044;SDS011;38930;52.766;6.884;2023-05-16T02:09:58;6.80;;;1.58;;
53044;SDS011;38930;52.766;6.884;2023-05-16T02:12:23;8.15;;;1.75;;
53044;SDS011;38930;52.766;6.884;2023-05-16T02:14:49;7.40;;;1.60;;
53044;SDS011;38930;52.766;6.884;2023-05-16T02:17:15;14.48;;;1.77;;
53044;SDS011;38930;52.766;6.884;2023-05-16T02:19:41;4.30;;;1.55;;
53044;SDS011;38930;52.766;6.884;2023-05-16T02:22:06;4.00;;;1.45;;
53044;SDS011;38930;52.766;6.884;2023-05-16T02:24:32;8.13;;;1.70;;
53044;SDS011;38930;52.766;6.884;2023-05-16T02:26:58;7.97;;;1.88;;
53044;SDS011;38930;52.766;6.884;2023-05-16T02:29:23;10.90;;;2.63;;
53044;SDS011;38930;52.766;6.884;2023-05-16T02:31:49;8.45;;;1.95;;
53044;SDS011;38930;52.766;6.884;2023-05-16T02:34:14;7.32;;;2.05;;
53044;SDS011;38930;52.766;6.884;2023-05-16T02:36:40;8.10;;;1.50;;
53044;SDS011;38930;52.766;6.884;2023-05-16T02:39:06;7.25;;;1.80;;
53044;SDS011;38930;52.766;6.884;2023-05-16T02:41:34;6.53;;;1.75;;
53044;SDS011;38930;52.766;6.884;2023-05-16T02:43:59;4.68;;;1.70;;
53044;SDS011;38930;52.766;6.884;2023-05-16T02:46:28;13.43;;;2.22;;
53044;SDS011;38930;52.766;6.884;2023-05-16T02:48:55;8.45;;;2.08;;
53044;SDS011;38930;52.766;6.884;2023-05-16T02:51:22;9.32;;;2.30;;
53044;SDS011;38930;52.766;6.884;2023-05-16T02:53:50;6.05;;;1.70;;
53044;SDS011;38930;52.766;6.884;2023-05-16T02:56:16;5.40;;;1.77;;
53044;SDS011;38930;52.766;6.884;2023-05-16T02:58:43;6.45;;;1.83;;
53044;SDS011;38930;52.766;6.884;2023-05-16T03:01:11;11.18;;;1.80;;
53044;SDS011;38930;52.766;6.884;2023-05-16T03:03:36;8.18;;;1.75;;
53044;SDS011;38930;52.766;6.884;2023-05-16T03:06:02;5.38;;;1.60;;
53044;SDS011;38930;52.766;6.884;2023-05-16T03:08:28;8.50;;;2.00;;
53044;SDS011;38930;52.766;6.884;2023-05-16T03:10:53;5.93;;;2.00;;
53044;SDS011;38930;52.766;6.884;2023-05-16T03:13:19;6.88;;;1.88;;
53044;SDS011;38930;52.766;6.884;2023-05-16T03:15:44;9.70;;;1.98;;
53044;SDS011;38930;52.766;6.884;2023-05-16T03:18:10;7.47;;;2.25;;
53044;SDS011;38930;52.766;6.884;2023-05-16T03:20:36;10.68;;;1.65;;
53044;SDS011;38930;52.766;6.884;2023-05-16T03:23:02;8.27;;;1.70;;
53044;SDS011;38930;52.766;6.884;2023-05-16T03:25:31;4.32;;;1.63;;
53044;SDS011;38930;52.766;6.884;2023-05-16T03:27:57;10.52;;;1.80;;
53044;SDS011;38930;52.766;6.884;2023-05-16T03:30:23;4.38;;;1.70;;
53044;SDS011;38930;52.766;6.884;2023-05-16T03:32:50;5.13;;;1.98;;
53044;SDS011;38930;52.766;6.884;2023-05-16T03:35:16;6.53;;;1.65;;
53044;SDS011;38930;52.766;6.884;2023-05-16T03:37:42;11.20;;;1.92;;
53044;SDS011;38930;52.766;6.884;2023-05-16T03:40:07;9.93;;;2.08;;
53044;SDS011;38930;52.766;6.884;2023-05-16T03:42:33;7.80;;;1.75;;
53044;SDS011;38930;52.766;6.884;2023-05-16T03:44:59;9.88;;;1.85;;
53044;SDS011;38930;52.766;6.884;2023-05-16T03:47:25;6.55;;;1.48;;
53044;SDS011;38930;52.766;6.884;2023-05-16T03:49:54;7.03;;;1.52;;
53044;SDS011;38930;52.766;6.884;2023-05-16T03:52:20;8.77;;;1.60;;
53044;SDS011;38930;52.766;6.884;2023-05-16T03:54:45;12.10;;;2.38;;
53044;SDS011;38930;52.766;6.884;2023-05-16T03:57:11;8.30;;;1.45;;
53044;SDS011;38930;52.766;6.884;2023-05-16T03:59:36;8.27;;;1.65;;
53044;SDS011;38930;52.766;6.884;2023-05-16T04:02:03;7.22;;;1.92;;
53044;SDS011;38930;52.766;6.884;2023-05-16T04:04:29;7.77;;;1.73;;
53044;SDS011;38930;52.766;6.884;2023-05-16T04:06:54;3.15;;;1.30;;
53044;SDS011;38930;52.766;6.884;2023-05-16T04:09:20;8.30;;;2.00;;
53044;SDS011;38930;52.766;6.884;2023-05-16T04:11:46;12.98;;;1.80;;
53044;SDS011;38930;52.766;6.884;2023-05-16T04:14:12;9.57;;;1.50;;
53044;SDS011;38930;52.766;6.884;2023-05-16T04:16:38;7.57;;;1.52;;
53044;SDS011;38930;52.766;6.884;2023-05-16T04:19:03;8.80;;;1.88;;
53044;SDS011;38930;52.766;6.884;2023-05-16T04:21:29;7.15;;;1.90;;
53044;SDS011;38930;52.766;6.884;2023-05-16T04:23:55;7.82;;;2.08;;
53044;SDS011;38930;52.766;6.884;2023-05-16T04:26:21;9.48;;;2.00;;
53044;SDS011;38930;52.766;6.884;2023-05-16T04:28:48;6.57;;;1.77;;
53044;SDS011;38930;52.766;6.884;2023-05-16T04:31:14;9.30;;;2.35;;
53044;SDS011;38930;52.766;6.884;2023-05-16T04:33:40;11.75;;;1.67;;
53044;SDS011;38930;52.766;6.884;2023-05-16T04:36:06;5.32;;;1.65;;
53044;SDS011;38930;52.766;6.884;2023-05-16T04:38:32;7.30;;;1.45;;
53044;SDS011;38930;52.766;6.884;2023-05-16T04:40:58;7.63;;;1.48;;
53044;SDS011;38930;52.766;6.884;2023-05-16T04:43:24;6.23;;;2.07;;
53044;SDS011;38930;52.766;6.884;2023-05-16T04:45:50;6.88;;;2.80;;
53044;SDS011;38930;52.766;6.884;2023-05-16T04:48:17;7.13;;;1.92;;
53044;SDS011;38930;52.766;6.884;2023-05-16T04:50:43;8.50;;;1.73;;
53044;SDS011;38930;52.766;6.884;2023-05-16T04:53:09;9.30;;;1.90;;
53044;SDS011;38930;52.766;6.884;2023-05-16T04:55:35;10.82;;;2.03;;
53044;SDS011;38930;52.766;6.884;2023-05-16T04:58:01;7.25;;;1.90;;
53044;SDS011;38930;52.766;6.884;2023-05-16T05:00:27;5.18;;;1.52;;
53044;SDS011;38930;52.766;6.884;2023-05-16T05:02:52;8.32;;;1.63;;
53044;SDS011;38930;52.766;6.884;2023-05-16T05:05:18;5.47;;;1.30;;
53044;SDS011;38930;52.766;6.884;2023-05-16T05:07:44;5.75;;;1.63;;
53044;SDS011;38930;52.766;6.884;2023-05-16T05:10:10;5.90;;;1.85;;
53044;SDS011;38930;52.766;6.884;2023-05-16T05:12:35;4.10;;;1.55;;
53044;SDS011;38930;52.766;6.884;2023-05-16T05:15:01;11.60;;;2.08;;
53044;SDS011;38930;52.766;6.884;2023-05-16T05:17:28;10.88;;;2.30;;
53044;SDS011;38930;52.766;6.884;2023-05-16T05:19:54;7.35;;;1.70;;
53044;SDS011;38930;52.766;6.884;2023-05-16T05:22:19;9.68;;;1.70;;
53044;SDS011;38930;52.766;6.884;2023-05-16T05:24:45;6.65;;;1.77;;
53044;SDS011;38930;52.766;6.884;2023-05-16T05:27:11;6.43;;;2.53;;
53044;SDS011;38930;52.766;6.884;2023-05-16T05:29:37;8.55;;;2.08;;
53044;SDS011;38930;52.766;6.884;2023-05-16T05:32:03;5.82;;;1.70;;
53044;SDS011;38930;52.766;6.884;2023-05-16T05:34:29;6.13;;;2.00;;
53044;SDS011;38930;52.766;6.884;2023-05-16T05:36:55;5.88;;;1.50;;
53044;SDS011;38930;52.766;6.884;2023-05-16T05:39:21;6.32;;;1.58;;
53044;SDS011;38930;52.766;6.884;2023-05-16T05:41:48;9.40;;;2.08;;
53044;SDS011;38930;52.766;6.884;2023-05-16T05:44:14;6.97;;;1.90;;
53044;SDS011;38930;52.766;6.884;2023-05-16T05:46:39;7.40;;;2.00;;
53044;SDS011;38930;52.766;6.884;2023-05-16T05:49:05;12.77;;;1.67;;
53044;SDS011;38930;52.766;6.884;2023-05-16T05:51:31;6.53;;;1.48;;
53044;SDS011;38930;52.766;6.884;2023-05-16T05:53:57;8.63;;;2.95;;
53044;SDS011;38930;52.766;6.884;2023-05-16T05:56:22;6.30;;;2.03;;
53044;SDS011;38930;52.766;6.884;2023-05-16T05:58:49;4.50;;;1.60;;
53044;SDS011;38930;52.766;6.884;2023-05-16T06:01:15;8.05;;;1.50;;
53044;SDS011;38930;52.766;6.884;2023-05-16T06:03:41;5.63;;;2.13;;
53044;SDS011;38930;52.766;6.884;2023-05-16T06:06:07;7.15;;;1.50;;
53044;SDS011;38930;52.766;6.884;2023-05-16T06:08:33;6.97;;;1.40;;
53044;SDS011;38930;52.766;6.884;2023-05-16T06:10:59;8.20;;;1.77;;
53044;SDS011;38930;52.766;6.884;2023-05-16T06:13:25;7.05;;;1.55;;
53044;SDS011;38930;52.766;6.884;2023-05-16T06:15:52;4.72;;;1.30;;
53044;SDS011;38930;52.766;6.884;2023-05-16T06:18:18;5.88;;;1.40;;
53044;SDS011;38930;52.766;6.884;2023-05-16T06:20:44;7.72;;;1.33;;
53044;SDS011;38930;52.766;6.884;2023-05-16T06:23:09;9.93;;;1.45;;
53044;SDS011;38930;52.766;6.884;2023-05-16T06:25:35;5.03;;;1.27;;
53044;SDS011;38930;52.766;6.884;2023-05-16T06:28:01;6.55;;;1.45;;
53044;SDS011;38930;52.766;6.884;2023-05-16T06:30:26;7.43;;;1.23;;
53044;SDS011;38930;52.766;6.884;2023-05-16T06:32:52;5.10;;;1.48;;
53044;SDS011;38930;52.766;6.884;2023-05-16T06:35:17;5.68;;;1.20;;
53044;SDS011;38930;52.766;6.884;2023-05-16T06:37:43;4.15;;;1.25;;
53044;SDS011;38930;52.766;6.884;2023-05-16T06:40:10;7.43;;;1.15;;
53044;SDS011;38930;52.766;6.884;2023-05-16T06:42:36;8.63;;;1.42;;
53044;SDS011;38930;52.766;6.884;2023-05-16T06:45:02;6.85;;;1.80;;
53044;SDS011;38930;52.766;6.884;2023-05-16T06:47:27;4.97;;;1.63;;
53044;SDS011;38930;52.766;6.884;2023-05-16T06:49:53;2.08;;;0.93;;
53044;SDS011;38930;52.766;6.884;2023-05-16T06:52:18;6.15;;;1.30;;
53044;SDS011;38930;52.766;6.884;2023-05-16T06:54:44;4.40;;;1.10;;
53044;SDS011;38930;52.766;6.884;2023-05-16T06:57:10;5.68;;;1.42;;
53044;SDS011;38930;52.766;6.884;2023-05-16T06:59:36;6.38;;;1.23;;
53044;SDS011;38930;52.766;6.884;2023-05-16T07:02:01;6.40;;;1.30;;
53044;SDS011;38930;52.766;6.884;2023-05-16T07:04:27;7.18;;;1.20;;
53044;SDS011;38930;52.766;6.884;2023-05-16T07:06:52;5.43;;;1.00;;
53044;SDS011;38930;52.766;6.884;2023-05-16T07:09:19;7.18;;;1.10;;
53044;SDS011;38930;52.766;6.884;2023-05-16T07:11:45;3.97;;;1.15;;
53044;SDS011;38930;52.766;6.884;2023-05-16T07:14:11;7.30;;;1.60;;
53044;SDS011;38930;52.766;6.884;2023-05-16T07:16:36;7.07;;;1.42;;
53044;SDS011;38930;52.766;6.884;2023-05-16T07:19:02;6.22;;;0.98;;
53044;SDS011;38930;52.766;6.884;2023-05-16T07:21:27;4.45;;;1.00;;
53044;SDS011;38930;52.766;6.884;2023-05-16T07:23:54;3.92;;;1.30;;
53044;SDS011;38930;52.766;6.884;2023-05-16T07:26:20;5.22;;;1.23;;
53044;SDS011;38930;52.766;6.884;2023-05-16T07:28:48;5.53;;;1.27;;
53044;SDS011;38930;52.766;6.884;2023-05-16T07:31:14;6.10;;;1.70;;
53044;SDS011;38930;52.766;6.884;2023-05-16T07:33:43;5.43;;;1.08;;
53044;SDS011;38930;52.766;6.884;2023-05-16T07:36:11;4.68;;;1.30;;
53044;SDS011;38930;52.766;6.884;2023-05-16T07:38:37;4.53;;;1.00;;
53044;SDS011;38930;52.766;6.884;2023-05-16T07:41:03;2.43;;;1.00;;
53044;SDS011;38930;52.766;6.884;2023-05-16T07:43:29;3.33;;;0.85;;
53044;SDS011;38930;52.766;6.884;2023-05-16T07:45:55;3.13;;;0.93;;
53044;SDS011;38930;52.766;6.884;2023-05-16T07:48:20;2.30;;;1.10;;
53044;SDS011;38930;52.766;6.884;2023-05-16T07:50:46;4.45;;;0.82;;
53044;SDS011;38930;52.766;6.884;2023-05-16T07:53:12;2.13;;;1.02;;
53044;SDS011;38930;52.766;6.884;2023-05-16T07:55:37;3.35;;;1.00;;
53044;SDS011;38930;52.766;6.884;2023-05-16T07:58:03;1.67;;;0.98;;
53044;SDS011;38930;52.766;6.884;2023-05-16T08:00:28;2.65;;;0.98;;
53044;SDS011;38930;52.766;6.884;2023-05-16T08:02:54;5.70;;;1.25;;
53044;SDS011;38930;52.766;6.884;2023-05-16T08:05:21;2.78;;;1.05;;
53044;SDS011;38930;52.766;6.884;2023-05-16T08:07:47;1.57;;;0.90;;
53044;SDS011;38930;52.766;6.884;2023-05-16T08:10:12;1.23;;;0.80;;
53044;SDS011;38930;52.766;6.884;2023-05-16T08:12:38;5.03;;;1.08;;
53044;SDS011;38930;52.766;6.884;2023-05-16T08:15:04;2.40;;;0.60;;
53044;SDS011;38930;52.766;6.884;2023-05-16T08:17:30;3.10;;;0.93;;
53044;SDS011;38930;52.766;6.884;2023-05-16T08:19:56;2.63;;;0.73;;
53044;SDS011;38930;52.766;6.884;2023-05-16T08:22:23;2.30;;;0.80;;
53044;SDS011;38930;52.766;6.884;2023-05-16T08:24:49;2.78;;;0.90;;
53044;SDS011;38930;52.766;6.884;2023-05-16T08:27:15;1.87;;;0.87;;
53044;SDS011;38930;52.766;6.884;2023-05-16T08:29:40;1.45;;;0.90;;
53044;SDS011;38930;52.766;6.884;2023-05-16T08:32:07;6.10;;;1.00;;
53044;SDS011;38930;52.766;6.884;2023-05-16T08:34:33;4.10;;;1.10;;
53044;SDS011;38930;52.766;6.884;2023-05-16T08:36:59;4.77;;;0.97;;
53044;SDS011;38930;52.766;6.884;2023-05-16T08:39:25;2.85;;;1.13;;
53044;SDS011;38930;52.766;6.884;2023-05-16T08:41:51;7.82;;;1.05;;
53044;SDS011;38930;52.766;6.884;2023-05-16T08:44:16;3.63;;;0.98;;
53044;SDS011;38930;52.766;6.884;2023-05-16T08:46:51;5.40;;;0.93;;
53044;SDS011;38930;52.766;6.884;2023-05-16T08:49:19;4.50;;;0.95;;
53044;SDS011;38930;52.766;6.884;2023-05-16T08:51:45;2.87;;;0.90;;
53044;SDS011;38930;52.766;6.884;2023-05-16T08:54:12;3.83;;;1.05;;
53044;SDS011;38930;52.766;6.884;2023-05-16T08:56:42;5.10;;;1.00;;
53044;SDS011;38930;52.766;6.884;2023-05-16T08:59:10;2.85;;;1.00;;
53044;SDS011;38930;52.766;6.884;2023-05-16T09:01:36;3.78;;;0.90;;
53044;SDS011;38930;52.766;6.884;2023-05-16T09:04:02;5.03;;;1.08;;
53044;SDS011;38930;52.766;6.884;2023-05-16T09:06:29;4.68;;;0.95;;
53044;SDS011;38930;52.766;6.884;2023-05-16T09:08:55;4.87;;;1.20;;
53044;SDS011;38930;52.766;6.884;2023-05-16T09:11:21;5.93;;;1.08;;
53044;SDS011;38930;52.766;6.884;2023-05-16T09:13:47;2.00;;;1.23;;
53044;SDS011;38930;52.766;6.884;2023-05-16T09:16:16;4.85;;;1.15;;
53044;SDS011;38930;52.766;6.884;2023-05-16T09:18:54;7.30;;;1.33;;
53044;SDS011;38930;52.766;6.884;2023-05-16T09:21:21;3.15;;;1.10;;
53044;SDS011;38930;52.766;6.884;2023-05-16T09:23:52;6.13;;;1.05;;
53044;SDS011;38930;52.766;6.884;2023-05-16T09:26:18;2.20;;;0.93;;
53044;SDS011;38930;52.766;6.884;2023-05-16T09:28:43;3.28;;;1.10;;
53044;SDS011;38930;52.766;6.884;2023-05-16T09:31:19;4.43;;;1.57;;
53044;SDS011;38930;52.766;6.884;2023-05-16T09:33:46;5.37;;;1.27;;
53044;SDS011;38930;52.766;6.884;2023-05-16T09:36:13;3.60;;;1.02;;
53044;SDS011;38930;52.766;6.884;2023-05-16T09:38:39;6.82;;;1.15;;
53044;SDS011;38930;52.766;6.884;2023-05-16T09:41:05;2.35;;;0.88;;
53044;SDS011;38930;52.766;6.884;2023-05-16T09:43:32;4.18;;;1.08;;
53044;SDS011;38930;52.766;6.884;2023-05-16T09:46:01;8.25;;;1.13;;
53044;SDS011;38930;52.766;6.884;2023-05-16T09:48:27;2.97;;;0.80;;
53044;SDS011;38930;52.766;6.884;2023-05-16T09:50:53;6.45;;;1.13;;
53044;SDS011;38930;52.766;6.884;2023-05-16T09:53:25;2.07;;;0.90;;
53044;SDS011;38930;52.766;6.884;2023-05-16T09:58:28;3.83;;;0.90;;
53044;SDS011;38930;52.766;6.884;2023-05-16T10:00:56;3.17;;;0.88;;
53044;SDS011;38930;52.766;6.884;2023-05-16T10:03:22;5.43;;;0.98;;
53044;SDS011;38930;52.766;6.884;2023-05-16T10:05:49;3.90;;;0.98;;
53044;SDS011;38930;52.766;6.884;2023-05-16T10:08:17;3.97;;;0.90;;
53044;SDS011;38930;52.766;6.884;2023-05-16T10:10:49;2.95;;;0.90;;
53044;SDS011;38930;52.766;6.884;2023-05-16T10:13:17;2.25;;;0.80;;
53044;SDS011;38930;52.766;6.884;2023-05-16T10:15:50;3.05;;;0.90;;
53044;SDS011;38930;52.766;6.884;2023-05-16T10:18:20;2.60;;;0.88;;
53044;SDS011;38930;52.766;6.884;2023-05-16T10:23:17;2.35;;;0.93;;
53044;SDS011;38930;52.766;6.884;2023-05-16T10:25:44;2.55;;;0.98;;
53044;SDS011;38930;52.766;6.884;2023-05-16T10:28:11;2.75;;;1.00;;
53044;SDS011;38930;52.766;6.884;2023-05-16T10:30:41;3.47;;;0.90;;
53044;SDS011;38930;52.766;6.884;2023-05-16T10:33:16;4.90;;;1.13;;
53044;SDS011;38930;52.766;6.884;2023-05-16T10:35:43;5.60;;;0.82;;
53044;SDS011;38930;52.766;6.884;2023-05-16T10:38:11;2.97;;;0.80;;
53044;SDS011;38930;52.766;6.884;2023-05-16T10:40:39;4.97;;;1.05;;
53044;SDS011;38930;52.766;6.884;2023-05-16T10:43:05;4.63;;;0.82;;
53044;SDS011;38930;52.766;6.884;2023-05-16T10:48:02;5.80;;;0.90;;
53044;SDS011;38930;52.766;6.884;2023-05-16T10:50:36;3.70;;;0.95;;
53044;SDS011;38930;52.766;6.884;2023-05-16T10:55:44;3.00;;;0.80;;
53044;SDS011;38930;52.766;6.884;2023-05-16T11:11:37;6.47;;;1.10;;
53044;SDS011;38930;52.766;6.884;2023-05-16T11:14:03;3.83;;;0.95;;
53044;SDS011;38930;52.766;6.884;2023-05-16T11:16:29;5.53;;;1.20;;
53044;SDS011;38930;52.766;6.884;2023-05-16T11:19:02;5.30;;;0.70;;
53044;SDS011;38930;52.766;6.884;2023-05-16T11:24:29;2.95;;;1.15;;
53044;SDS011;38930;52.766;6.884;2023-05-16T11:26:55;4.20;;;1.00;;
53044;SDS011;38930;52.766;6.884;2023-05-16T11:29:30;2.97;;;0.90;;
53044;SDS011;38930;52.766;6.884;2023-05-16T11:31:58;2.03;;;0.80;;
53044;SDS011;38930;52.766;6.884;2023-05-16T11:34:24;1.13;;;0.60;;
53044;SDS011;38930;52.766;6.884;2023-05-16T11:36:50;2.20;;;0.90;;
53044;SDS011;38930;52.766;6.884;2023-05-16T11:39:16;1.60;;;0.77;;
53044;SDS011;38930;52.766;6.884;2023-05-16T11:41:43;2.97;;;0.85;;
53044;SDS011;38930;52.766;6.884;2023-05-16T11:44:10;3.00;;;1.63;;
53044;SDS011;38930;52.766;6.884;2023-05-16T11:46:38;4.80;;;0.82;;
53044;SDS011;38930;52.766;6.884;2023-05-16T11:49:08;2.85;;;1.00;;
53044;SDS011;38930;52.766;6.884;2023-05-16T11:51:36;2.38;;;0.70;;
53044;SDS011;38930;52.766;6.884;2023-05-16T11:54:10;3.58;;;1.17;;
53044;SDS011;38930;52.766;6.884;2023-05-16T11:56:37;1.95;;;0.80;;
53044;SDS011;38930;52.766;6.884;2023-05-16T11:59:04;3.30;;;0.80;;
53044;SDS011;38930;52.766;6.884;2023-05-16T12:01:37;4.13;;;1.00;;
53044;SDS011;38930;52.766;6.884;2023-05-16T12:04:07;3.13;;;0.90;;
53044;SDS011;38930;52.766;6.884;2023-05-16T12:06:37;2.25;;;0.93;;
53044;SDS011;38930;52.766;6.884;2023-05-16T12:09:04;2.28;;;0.90;;
53044;SDS011;38930;52.766;6.884;2023-05-16T12:11:38;3.85;;;1.42;;
53044;SDS011;38930;52.766;6.884;2023-05-16T12:14:05;1.95;;;1.10;;
53044;SDS011;38930;52.766;6.884;2023-05-16T12:16:32;2.17;;;1.10;;
53044;SDS011;38930;52.766;6.884;2023-05-16T12:19:00;3.10;;;1.20;;
53044;SDS011;38930;52.766;6.884;2023-05-16T12:21:28;2.63;;;1.20;;
53044;SDS011;38930;52.766;6.884;2023-05-16T12:23:56;6.70;;;1.45;;
53044;SDS011;38930;52.766;6.884;2023-05-16T12:28:55;5.10;;;1.38;;
53044;SDS011;38930;52.766;6.884;2023-05-16T12:31:24;5.05;;;1.02;;
53044;SDS011;38930;52.766;6.884;2023-05-16T12:33:54;3.42;;;1.00;;
53044;SDS011;38930;52.766;6.884;2023-05-16T12:36:21;4.80;;;1.17;;
53044;SDS011;38930;52.766;6.884;2023-05-16T12:38:48;3.08;;;1.10;;
53044;SDS011;38930;52.766;6.884;2023-05-16T12:41:21;4.65;;;1.40;;
53044;SDS011;38930;52.766;6.884;2023-05-16T12:43:50;6.72;;;1.35;;
53044;SDS011;38930;52.766;6.884;2023-05-16T12:46:15;5.82;;;1.05;;
53044;SDS011;38930;52.766;6.884;2023-05-16T12:48:43;3.50;;;1.00;;
53044;SDS011;38930;52.766;6.884;2023-05-16T12:51:14;3.00;;;1.30;;
53044;SDS011;38930;52.766;6.884;2023-05-16T12:56:09;5.80;;;1.38;;
53044;SDS011;38930;52.766;6.884;2023-05-16T12:58:36;4.13;;;1.23;;
53044;SDS011;38930;52.766;6.884;2023-05-16T13:01:02;7.13;;;1.20;;
53044;SDS011;38930;52.766;6.884;2023-05-16T13:03:28;5.27;;;1.30;;
53044;SDS011;38930;52.766;6.884;2023-05-16T13:05:54;10.55;;;1.70;;
53044;SDS011;38930;52.766;6.884;2023-05-16T13:08:20;5.55;;;1.33;;
53044;SDS011;38930;52.766;6.884;2023-05-16T13:10:45;3.58;;;1.23;;
53044;SDS011;38930;52.766;6.884;2023-05-16T13:13:11;4.13;;;1.40;;
53044;SDS011;38930;52.766;6.884;2023-05-16T13:15:37;6.00;;;1.40;;
53044;SDS011;38930;52.766;6.884;2023-05-16T13:18:03;5.70;;;1.50;;
53044;SDS011;38930;52.766;6.884;2023-05-16T13:20:29;5.97;;;1.47;;
53044;SDS011;38930;52.766;6.884;2023-05-16T13:22:54;6.30;;;1.47;;
53044;SDS011;38930;52.766;6.884;2023-05-16T13:25:20;4.35;;;1.15;;
53044;SDS011;38930;52.766;6.884;2023-05-16T13:27:45;8.93;;;1.67;;
53044;SDS011;38930;52.766;6.884;2023-05-16T13:30:13;5.80;;;1.65;;
53044;SDS011;38930;52.766;6.884;2023-05-16T13:32:39;9.10;;;1.70;;
53044;SDS011;38930;52.766;6.884;2023-05-16T13:35:05;4.85;;;1.65;;
53044;SDS011;38930;52.766;6.884;2023-05-16T13:37:31;5.68;;;1.92;;
53044;SDS011;38930;52.766;6.884;2023-05-16T13:39:57;5.07;;;1.60;;
53044;SDS011;38930;52.766;6.884;2023-05-16T13:42:22;4.28;;;1.40;;
53044;SDS011;38930;52.766;6.884;2023-05-16T13:44:48;4.83;;;1.60;;
53044;SDS011;38930;52.766;6.884;2023-05-16T13:47:14;6.35;;;1.67;;
53044;SDS011;38930;52.766;6.884;2023-05-16T13:49:40;4.10;;;1.73;;
53044;SDS011;38930;52.766;6.884;2023-05-16T13:52:05;4.63;;;2.03;;
53044;SDS011;38930;52.766;6.884;2023-05-16T13:54:31;3.10;;;1.60;;
53044;SDS011;38930;52.766;6.884;2023-05-16T13:56:57;3.30;;;1.40;;
53044;SDS011;38930;52.766;6.884;2023-05-16T13:59:23;4.07;;;1.57;;
53044;SDS011;38930;52.766;6.884;2023-05-16T14:01:48;4.77;;;1.67;;
53044;SDS011;38930;52.766;6.884;2023-05-16T14:04:14;3.87;;;1.67;;
53044;SDS011;38930;52.766;6.884;2023-05-16T14:06:40;4.00;;;1.50;;
53044;SDS011;38930;52.766;6.884;2023-05-16T14:09:05;3.83;;;1.63;;
53044;SDS011;38930;52.766;6.884;2023-05-16T14:11:32;3.40;;;1.47;;
53044;SDS011;38930;52.766;6.884;2023-05-16T14:13:58;5.65;;;1.50;;
53044;SDS011;38930;52.766;6.884;2023-05-16T14:16:23;4.60;;;1.67;;
53044;SDS011;38930;52.766;6.884;2023-05-16T14:18:49;3.40;;;1.37;;
53044;SDS011;38930;52.766;6.884;2023-05-16T14:21:15;6.38;;;1.30;;
53044;SDS011;38930;52.766;6.884;2023-05-16T14:23:41;8.00;;;1.93;;
53044;SDS011;38930;52.766;6.884;2023-05-16T14:26:07;6.13;;;1.83;;
53044;SDS011;38930;52.766;6.884;2023-05-16T14:28:33;4.78;;;2.00;;
53044;SDS011;38930;52.766;6.884;2023-05-16T14:30:58;5.77;;;2.07;;
53044;SDS011;38930;52.766;6.884;2023-05-16T14:33:24;5.15;;;1.60;;
53044;SDS011;38930;52.766;6.884;2023-05-16T14:35:50;4.63;;;1.77;;
53044;SDS011;38930;52.766;6.884;2023-05-16T14:38:16;5.47;;;1.77;;
53044;SDS011;38930;52.766;6.884;2023-05-16T14:40:42;8.25;;;1.85;;
53044;SDS011;38930;52.766;6.884;2023-05-16T14:43:08;3.72;;;1.67;;
53044;SDS011;38930;52.766;6.884;2023-05-16T14:45:36;3.70;;;1.60;;
53044;SDS011;38930;52.766;6.884;2023-05-16T14:48:04;3.38;;;1.42;;
53044;SDS011;38930;52.766;6.884;2023-05-16T14:50:31;4.75;;;1.80;;
53044;SDS011;38930;52.766;6.884;2023-05-16T14:52:56;3.50;;;1.70;;
53044;SDS011;38930;52.766;6.884;2023-05-16T14:55:22;3.07;;;1.63;;
53044;SDS011;38930;52.766;6.884;2023-05-16T14:57:48;5.45;;;2.28;;
53044;SDS011;38930;52.766;6.884;2023-05-16T15:00:14;3.40;;;1.40;;
53044;SDS011;38930;52.766;6.884;2023-05-16T15:02:41;3.40;;;1.60;;
53044;SDS011;38930;52.766;6.884;2023-05-16T15:05:07;2.97;;;1.43;;
53044;SDS011;38930;52.766;6.884;2023-05-16T15:07:33;3.90;;;1.70;;
53044;SDS011;38930;52.766;6.884;2023-05-16T15:09:59;3.93;;;1.40;;
53044;SDS011;38930;52.766;6.884;2023-05-16T15:12:24;4.43;;;1.70;;
53044;SDS011;38930;52.766;6.884;2023-05-16T15:14:50;3.85;;;1.20;;
53044;SDS011;38930;52.766;6.884;2023-05-16T15:17:15;2.30;;;1.23;;
53044;SDS011;38930;52.766;6.884;2023-05-16T15:19:41;2.13;;;1.27;;
53044;SDS011;38930;52.766;6.884;2023-05-16T15:22:07;9.30;;;1.30;;
53044;SDS011;38930;52.766;6.884;2023-05-16T15:24:34;3.47;;;1.92;;